Time;durP1;ratioP1;P1;durP2;ratioP2;P2;SDS_P1;SDS_P2;PMS_P1;PMS_P2;Temp;Humidity;BMP_temperature;BMP_pressure;BME280_temperature;BME280_humidity;BME280_pressure;Samples;Min_cycle;Max_cycle;Signal;HPM_P1;HPM_P2
2022/04/17 17:19:24;;;;;;;;;;;5.10;92.70;;;;;;5147841;27;20634;-92
2022/04/17 17:21:50;;;;;;;;;;;4.90;94.40;;;;;;5122739;27;19983;-93
2022/04/17 17:24:51;;;;;;;;;;;4.90;96.10;;;;;;5133573;27;19911;-93
2022/04/17 17:27:20;;;;;;;;;;;5.00;97.40;;;;;;5113125;28;20003;-92
2022/04/17 17:30:15;;;;;;;;;;;5.00;98.50;;;;;;5090349;28;20381;-94
2022/04/17 17:33:09;;;;;;;;;;;5.00;99.20;;;;;;5083714;28;19915;-93
2022/04/17 17:35:41;;;;;;;;;;;5.10;99.70;;;;;;5117264;27;19928;-93
2022/04/17 17:38:12;;;;;;;;;;;5.20;99.90;;;;;;5122894;28;19999;-92
2022/04/17 17:40:38;;;;;;;;;;;5.20;99.90;;;;;;5117112;28;20479;-93
2022/04/17 17:43:11;;;;;;;;;;;5.30;99.90;;;;;;5112642;28;19952;-96
2022/04/17 17:45:37;;;;;;;;;;;5.30;99.90;;;;;;5086552;28;19919;-94
2022/04/17 17:48:04;;;;;;;;;;;5.30;99.90;;;;;;5105144;28;19917;-95
2022/04/17 17:50:30;;;;;;;;;;;5.30;99.90;;;;;;5096703;28;19912;-94
2022/04/17 17:55:59;;;;;;;;;;;5.30;99.90;;;;;;5114514;28;19930;-94
2022/04/17 17:58:24;;;;;;;;;;;5.30;99.90;;;;;;5138957;27;19915;-91
2022/04/17 18:00:50;;;;;;;;;;;5.30;99.90;;;;;;5117573;27;20337;-92
2022/04/17 18:03:15;;;;;;;;;;;5.30;99.90;;;;;;5124008;27;20355;-92
2022/04/17 18:05:41;;;;;;;;;;;5.30;99.90;;;;;;5121760;27;20278;-94
2022/04/17 18:16:21;;;;;;;;;;;5.30;99.90;;;;;;5137055;27;19922;-94
2022/04/17 18:18:46;;;;;;;;;;;5.20;99.80;;;;;;5135095;28;19919;-95
2022/04/17 18:21:15;;;;;;;;;;;5.20;99.80;;;;;;5130326;28;20360;-94
2022/04/17 18:23:40;;;;;;;;;;;5.20;99.80;;;;;;5113911;28;19912;-95
2022/04/17 18:26:06;;;;;;;;;;;5.20;99.80;;;;;;5102056;28;19912;-93
2022/04/17 18:28:32;;;;;;;;;;;5.20;99.90;;;;;;5096168;28;20424;-93
2022/04/17 18:31:01;;;;;;;;;;;5.20;99.90;;;;;;5083343;28;19952;-94
2022/04/17 18:33:27;;;;;;;;;;;5.10;99.90;;;;;;5082874;28;19951;-93
2022/04/17 18:35:54;;;;;;;;;;;5.10;99.90;;;;;;5100267;28;19908;-92
2022/04/17 18:38:19;;;;;;;;;;;5.10;99.90;;;;;;5106232;28;19934;-94
2022/04/17 18:40:45;;;;;;;;;;;5.10;99.90;;;;;;5098840;28;20340;-93
2022/04/17 18:43:10;;;;;;;;;;;5.00;99.90;;;;;;5085892;28;19919;-93
2022/04/17 18:45:36;;;;;;;;;;;5.00;99.90;;;;;;5085342;28;20005;-92
2022/04/17 18:48:01;;;;;;;;;;;5.00;99.90;;;;;;5118243;28;19912;-93
2022/04/17 18:50:27;;;;;;;;;;;5.00;99.90;;;;;;5100928;28;19908;-93
2022/04/17 18:52:53;;;;;;;;;;;5.00;99.90;;;;;;5101651;28;20014;-93
2022/04/17 18:55:20;;;;;;;;;;;4.90;99.90;;;;;;5099977;28;19908;-93
2022/04/17 18:57:46;;;;;;;;;;;4.90;99.90;;;;;;5099825;28;19929;-92
2022/04/17 19:00:12;;;;;;;;;;;5.00;99.90;;;;;;5079534;28;19908;-94
2022/04/17 19:02:37;;;;;;;;;;;5.00;99.90;;;;;;5104024;28;19907;-92
2022/04/17 19:05:03;;;;;;;;;;;5.00;99.90;;;;;;5116570;28;19930;-93
2022/04/17 19:07:28;;;;;;;;;;;5.00;99.90;;;;;;5112819;28;20363;-96
2022/04/17 19:09:54;;;;;;;;;;;4.90;99.90;;;;;;5083690;28;19919;-94
2022/04/17 19:15:04;;;;;;;;;;;5.00;99.90;;;;;;5104384;28;20337;-94
2022/04/17 19:17:29;;;;;;;;;;;5.00;99.90;;;;;;5083496;28;19951;-95
2022/04/17 19:19:55;;;;;;;;;;;5.00;99.90;;;;;;5080303;28;19938;-94
2022/04/17 19:22:21;;;;;;;;;;;5.00;99.90;;;;;;5080066;28;20038;-93
2022/04/17 19:24:47;;;;;;;;;;;4.90;99.90;;;;;;5109620;28;19914;-92
2022/04/17 19:27:13;;;;;;;;;;;4.90;99.90;;;;;;5098475;28;19912;-95
2022/04/17 19:29:38;;;;;;;;;;;4.80;99.90;;;;;;5106869;28;19908;-95
2022/04/17 19:38:51;;;;;;;;;;;;;;;;;;;;;
